Time;durP1;ratioP1;P1;durP2;ratioP2;P2;SDS_P1;SDS_P2;PMS_P1;PMS_P2;Temp;Humidity;BMP_temperature;BMP_pressure;BME280_temperature;BME280_humidity;BME280_pressure;Samples;Min_cycle;Max_cycle;Signal;HPM_P1;HPM_P2
2022/09/10 00:00:46;;;;;;;;;;;;;;;14.20;93.22;99305.67;1679135;84;20086;-66
2022/09/10 00:03:13;;;;;;;;;;;;;;;14.24;93.06;99305.08;1678486;84;21079;-67
2022/09/10 00:05:40;;;;;;;;;;;;;;;14.20;92.98;99305.17;1677761;84;20123;-66
2022/09/10 00:08:07;;;;;;;;;;;;;;;14.21;93.04;99301.45;1670004;84;20501;-67
2022/09/10 00:10:39;;;;;;;;;;;;;;;14.17;93.25;99298.04;1675300;84;20733;-67
2022/09/10 00:13:06;;;;;;;;;;;;;;;14.20;93.33;99290.96;1672802;83;20182;-67
2022/09/10 00:15:38;;;;;;;;;;;;;;;14.14;93.62;99285.88;1675783;84;21250;-67
2022/09/10 00:18:05;;;;;;;;;;;;;;;14.20;93.55;99294.98;1678774;84;20530;-66
2022/09/10 00:20:32;;;;;;;;;;;;;;;14.18;93.20;99298.37;1678987;84;21125;-66
2022/09/10 00:23:01;;;;;;;;;;;;;;;14.18;93.37;99301.84;1679294;84;20471;-67
2022/09/10 00:25:31;;;;;;;;;;;;;;;14.15;93.30;99301.43;1677704;84;20642;-67
2022/09/10 00:27:59;;;;;;;;;;;;;;;14.13;93.39;99300.81;1682128;84;21892;-66
2022/09/10 00:30:26;;;;;;;;;;;;;;;14.11;93.81;99290.28;1654768;84;20152;-66
2022/09/10 00:32:53;;;;;;;;;;;;;;;14.20;93.58;99288.28;1653987;86;20172;-67
2022/09/10 00:35:20;;;;;;;;;;;;;;;14.19;93.21;99287.96;1651605;86;20191;-67
2022/09/10 00:37:46;;;;;;;;;;;;;;;14.18;93.30;99271.61;1652452;86;20222;-66
2022/09/10 00:40:13;;;;;;;;;;;;;;;14.17;93.39;99282.82;1648385;86;21163;-67
2022/09/10 00:42:42;;;;;;;;;;;;;;;14.15;93.17;99280.03;1651393;86;20556;-67
2022/09/10 00:45:18;;;;;;;;;;;;;;;14.15;93.40;99274.68;1651551;86;20440;-67
2022/09/10 00:47:46;;;;;;;;;;;;;;;14.14;93.41;99287.73;1652254;86;21253;-66
2022/09/10 00:50:26;;;;;;;;;;;;;;;14.14;93.36;99282.38;1651085;85;20180;-66
2022/09/10 00:52:56;;;;;;;;;;;;;;;14.12;93.62;99275.07;1650243;86;21250;-67
2022/09/10 00:55:22;;;;;;;;;;;;;;;14.17;93.43;99264.09;1650404;86;20095;-67
2022/09/10 00:57:50;;;;;;;;;;;;;;;14.11;93.61;99264.88;1650347;86;20090;-67
2022/09/10 01:00:16;;;;;;;;;;;;;;;14.08;94.12;99259.92;1652191;85;20206;-67
2022/09/10 01:02:43;;;;;;;;;;;;;;;14.10;93.96;99267.22;1651997;86;20439;-67
2022/09/10 01:05:09;;;;;;;;;;;;;;;14.06;93.90;99271.33;1653651;86;22156;-67
2022/09/10 01:07:36;;;;;;;;;;;;;;;14.05;93.71;99257.62;1627823;86;20457;-66
2022/09/10 01:10:11;;;;;;;;;;;;;;;14.13;93.83;99260.69;1651723;86;20078;-67
2022/09/10 01:13:04;;;;;;;;;;;;;;;14.19;93.58;99267.39;1650924;86;20150;-67
2022/09/10 01:15:53;;;;;;;;;;;;;;;14.53;91.88;99261.19;1649062;86;20122;-68
2022/09/10 01:18:56;;;;;;;;;;;;;;;14.22;93.13;99254.95;1623567;86;20571;-67
2022/09/10 01:21:50;;;;;;;;;;;;;;;14.03;94.58;99250.33;1649498;86;20180;-66
2022/09/10 01:24:23;;;;;;;;;;;;;;;14.05;94.48;99239.45;1652917;86;20151;-66
2022/09/10 01:27:08;;;;;;;;;;;;;;;14.05;94.83;99236.77;1651295;86;20446;-66
2022/09/10 01:29:57;;;;;;;;;;;;;;;14.07;94.47;99226.69;1643019;85;20214;-66
2022/09/10 01:32:34;;;;;;;;;;;;;;;14.07;94.81;99232.88;1626269;86;21254;-67
2022/09/10 01:35:07;;;;;;;;;;;;;;;14.10;94.96;99230.31;1653827;86;20248;-66
2022/09/10 01:37:34;;;;;;;;;;;;;;;14.14;94.90;99224.87;1644568;85;20159;-66
2022/09/10 01:40:01;;;;;;;;;;;;;;;14.18;94.64;99222.92;1681204;84;20144;-67
2022/09/10 01:42:31;;;;;;;;;;;;;;;14.21;94.11;99210.99;1673822;84;20458;-67
2022/09/10 01:44:57;;;;;;;;;;;;;;;14.14;94.10;99204.80;1680198;84;22384;-67
2022/09/10 01:47:35;;;;;;;;;;;;;;;14.04;94.65;99213.20;1681226;84;20143;-66
2022/09/10 01:50:23;;;;;;;;;;;;;;;14.09;94.69;99212.09;1680942;84;20178;-67
2022/09/10 01:53:09;;;;;;;;;;;;;;;14.15;94.27;99205.12;1675821;84;20163;-66
2022/09/10 01:55:45;;;;;;;;;;;;;;;14.12;94.06;99208.20;1682487;84;20212;-66
2022/09/10 01:58:25;;;;;;;;;;;;;;;14.11;94.04;99222.58;1677823;85;20994;-67
2022/09/10 02:01:27;;;;;;;;;;;;;;;14.07;94.31;99213.32;1676882;84;20167;-67
2022/09/10 02:04:05;;;;;;;;;;;;;;;13.99;94.57;99210.30;1682226;84;20495;-67
2022/09/10 02:06:33;;;;;;;;;;;;;;;14.03;94.54;99212.88;1678106;84;20178;-66
2022/09/10 02:09:00;;;;;;;;;;;;;;;14.02;94.53;99208.58;1677108;84;20147;-67
2022/09/10 02:11:26;;;;;;;;;;;;;;;14.01;94.47;99207.42;1655626;85;21147;-67
2022/09/10 02:13:54;;;;;;;;;;;;;;;14.00;94.67;99213.81;1656395;85;20181;-66
2022/09/10 02:16:30;;;;;;;;;;;;;;;14.05;94.39;99220.19;1677459;84;20141;-67
2022/09/10 02:18:58;;;;;;;;;;;;;;;14.05;94.36;99214.84;1681016;84;20127;-66
2022/09/10 02:21:24;;;;;;;;;;;;;;;14.10;93.70;99208.91;1682272;84;20190;-67
2022/09/10 02:23:55;;;;;;;;;;;;;;;14.13;93.55;99207.19;1677827;84;21066;-66
2022/09/10 02:26:21;;;;;;;;;;;;;;;14.11;93.61;99206.03;1678677;84;20155;-67
2022/09/10 02:28:48;;;;;;;;;;;;;;;14.00;93.64;99197.77;1680871;84;20106;-66
2022/09/10 02:31:15;;;;;;;;;;;;;;;13.93;94.31;99203.56;1679251;84;20106;-66
2022/09/10 02:33:42;;;;;;;;;;;;;;;13.94;94.27;99205.23;1677855;84;20126;-67
2022/09/10 02:36:09;;;;;;;;;;;;;;;13.93;94.18;99205.73;1679509;84;21287;-67
2022/09/10 02:38:35;;;;;;;;;;;;;;;13.84;94.54;99198.92;1681245;84;20352;-67
2022/09/10 02:41:02;;;;;;;;;;;;;;;13.88;94.56;99189.97;1678505;84;20094;-67
2022/09/10 02:43:28;;;;;;;;;;;;;;;13.91;94.57;99188.24;1679874;84;20151;-67
2022/09/10 02:45:57;;;;;;;;;;;;;;;13.93;94.33;99188.36;1679708;84;20440;-68
2022/09/10 02:48:25;;;;;;;;;;;;;;;13.89;94.08;99187.11;1682738;84;22133;-67
2022/09/10 02:50:53;;;;;;;;;;;;;;;13.87;94.25;99201.70;1678183;84;20086;-67
2022/09/10 02:53:19;;;;;;;;;;;;;;;13.85;94.07;99197.88;1680356;84;20147;-66
2022/09/10 02:55:47;;;;;;;;;;;;;;;13.81;94.12;99197.14;1652418;85;20483;-67
2022/09/10 02:58:14;;;;;;;;;;;;;;;13.84;94.32;99192.23;1680116;84;20543;-67
2022/09/10 03:00:41;;;;;;;;;;;;;;;13.92;94.45;99189.91;1678494;84;21143;-68
2022/09/10 03:03:08;;;;;;;;;;;;;;;13.93;94.37;99188.36;1678331;84;20468;-67
2022/09/10 03:05:37;;;;;;;;;;;;;;;13.76;94.87;99184.87;1680676;84;20229;-67
2022/09/10 03:08:05;;;;;;;;;;;;;;;13.63;95.83;99165.59;1679911;84;20148;-67
2022/09/10 03:10:33;;;;;;;;;;;;;;;13.61;96.13;99161.76;1679828;84;20551;-67
2022/09/10 03:12:59;;;;;;;;;;;;;;;13.63;95.65;99158.91;1680722;84;21304;-67
2022/09/10 03:15:26;;;;;;;;;;;;;;;13.59;95.47;99159.80;1679485;84;20143;-67
2022/09/10 03:17:53;;;;;;;;;;;;;;;13.59;95.95;99155.79;1681416;84;20494;-67
2022/09/10 03:20:21;;;;;;;;;;;;;;;13.63;96.47;99157.03;1679403;84;20640;-66
2022/09/10 03:22:50;;;;;;;;;;;;;;;13.63;95.75;99168.27;1677223;84;20125;-67
2022/09/10 03:25:18;;;;;;;;;;;;;;;13.62;95.75;99179.96;1679106;84;21182;-66
2022/09/10 03:27:44;;;;;;;;;;;;;;;13.61;95.85;99160.42;1676992;84;20227;-67
2022/09/10 03:30:12;;;;;;;;;;;;;;;13.65;96.00;99158.70;1674668;84;20434;-67
2022/09/10 03:32:38;;;;;;;;;;;;;;;13.65;96.13;99156.02;1674955;84;20143;-67
2022/09/10 03:35:06;;;;;;;;;;;;;;;13.65;96.39;99166.21;1673170;84;20104;-67
2022/09/10 03:37:34;;;;;;;;;;;;;;;13.70;96.60;99157.59;1676085;84;21175;-67
2022/09/10 03:40:01;;;;;;;;;;;;;;;13.71;96.63;99160.59;1680638;84;20207;-67
2022/09/10 03:42:28;;;;;;;;;;;;;;;13.80;96.44;99150.03;1676367;84;20127;-66
2022/09/10 03:44:55;;;;;;;;;;;;;;;13.89;95.84;99148.34;1656553;84;20177;-66
2022/09/10 03:47:22;;;;;;;;;;;;;;;13.84;96.02;99163.33;1669931;84;20088;-68
2022/09/10 03:49:49;;;;;;;;;;;;;;;13.81;95.94;99167.23;1675848;84;21164;-69
2022/09/10 03:52:16;;;;;;;;;;;;;;;13.81;96.09;99166.39;1670724;84;20131;-68
2022/09/10 03:54:44;;;;;;;;;;;;;;;13.90;96.07;99163.84;1678012;84;20194;-68
2022/09/10 03:57:10;;;;;;;;;;;;;;;13.93;95.85;99167.47;1679795;84;20203;-65
2022/09/10 03:59:39;;;;;;;;;;;;;;;13.90;95.84;99153.16;1682868;83;20147;-66
2022/09/10 04:02:05;;;;;;;;;;;;;;;13.99;95.61;99159.48;1683943;83;21183;-67
2022/09/10 04:04:32;;;;;;;;;;;;;;;14.01;95.37;99153.92;1686183;83;20225;-66
2022/09/10 04:07:00;;;;;;;;;;;;;;;14.00;95.42;99150.42;1686789;83;20127;-67
2022/09/10 04:09:27;;;;;;;;;;;;;;;13.99;95.55;99151.97;1680322;83;20246;-67
2022/09/10 04:11:53;;;;;;;;;;;;;;;13.98;95.79;99154.32;1668417;84;20167;-67
2022/09/10 04:14:21;;;;;;;;;;;;;;;13.98;95.62;99150.31;1690167;83;21185;-66
2022/09/10 04:16:47;;;;;;;;;;;;;;;13.95;95.54;99147.52;1688741;83;20218;-67
2022/09/10 04:19:14;;;;;;;;;;;;;;;13.97;95.53;99144.16;1690228;83;20520;-67
2022/09/10 04:21:41;;;;;;;;;;;;;;;13.98;95.17;99132.92;1688891;83;21739;-67
2022/09/10 04:24:10;;;;;;;;;;;;;;;13.98;95.24;99134.27;1661922;84;20122;-67
2022/09/10 04:26:37;;;;;;;;;;;;;;;13.92;95.14;99135.89;1665767;85;21908;-67
2022/09/10 04:29:04;;;;;;;;;;;;;;;13.80;95.59;99143.34;1652545;85;20210;-67
2022/09/10 04:31:30;;;;;;;;;;;;;;;13.77;95.60;99149.08;1648160;85;20157;-67
2022/09/10 04:34:00;;;;;;;;;;;;;;;13.80;95.84;99150.03;1676172;84;20122;-66
2022/09/10 04:36:26;;;;;;;;;;;;;;;13.82;95.83;99144.80;1677608;84;20163;-67
2022/09/10 04:38:53;;;;;;;;;;;;;;;13.82;95.67;99142.66;1679256;84;21186;-67
2022/09/10 04:41:20;;;;;;;;;;;;;;;13.86;95.64;99139.88;1681398;84;20524;-67
2022/09/10 04:43:47;;;;;;;;;;;;;;;13.78;96.26;99140.05;1681719;84;20191;-67
2022/09/10 04:46:13;;;;;;;;;;;;;;;13.85;96.06;99140.39;1678263;84;20232;-68
2022/09/10 04:48:41;;;;;;;;;;;;;;;13.83;96.15;99142.95;1678402;84;20123;-67
2022/09/10 04:51:12;;;;;;;;;;;;;;;13.83;96.05;99138.94;1678688;84;21951;-68
2022/09/10 04:53:40;;;;;;;;;;;;;;;13.88;96.50;99129.80;1683026;84;20108;-67
2022/09/10 04:56:07;;;;;;;;;;;;;;;13.98;95.46;99122.23;1680694;84;20126;-67
2022/09/10 04:58:36;;;;;;;;;;;;;;;13.94;95.76;99121.00;1680758;84;20190;-67
2022/09/10 05:01:02;;;;;;;;;;;;;;;13.92;95.52;99120.38;1680340;84;20151;-68
2022/09/10 05:03:29;;;;;;;;;;;;;;;13.92;95.63;99121.72;1679636;84;21142;-67
2022/09/10 05:05:55;;;;;;;;;;;;;;;13.92;95.79;99119.84;1679905;83;20226;-67
2022/09/10 05:08:22;;;;;;;;;;;;;;;13.91;95.77;99119.55;1680990;84;20151;-66
2022/09/10 05:10:51;;;;;;;;;;;;;;;13.97;95.74;99116.59;1678912;84;20092;-67
2022/09/10 05:13:17;;;;;;;;;;;;;;;13.92;95.52;99111.02;1678101;84;20115;-67
2022/09/10 05:15:44;;;;;;;;;;;;;;;13.93;95.43;99093.42;1681317;84;21256;-65
2022/09/10 05:18:13;;;;;;;;;;;;;;;13.94;95.66;99099.09;1680549;84;20457;-66
2022/09/10 05:20:44;;;;;;;;;;;;;;;13.88;96.19;99099.06;1681448;84;20222;-67
2022/09/10 05:23:11;;;;;;;;;;;;;;;13.89;96.57;99091.36;1673917;84;20519;-67
2022/09/10 05:25:38;;;;;;;;;;;;;;;13.97;96.44;99091.19;1677012;84;20494;-67
2022/09/10 05:28:05;;;;;;;;;;;;;;;13.96;96.54;99091.69;1672399;84;21133;-68
2022/09/10 05:30:32;;;;;;;;;;;;;;;13.98;96.69;99100.84;1680369;84;20123;-67
2022/09/10 05:32:59;;;;;;;;;;;;;;;13.99;96.68;99099.83;1675883;84;20148;-65
2022/09/10 05:35:27;;;;;;;;;;;;;;;13.89;96.88;99096.71;1673254;84;20250;-67
2022/09/10 05:37:56;;;;;;;;;;;;;;;13.87;97.18;99097.43;1677082;84;20210;-67
2022/09/10 05:40:24;;;;;;;;;;;;;;;13.91;97.07;99105.34;1680022;84;21245;-67
2022/09/10 05:42:52;;;;;;;;;;;;;;;13.89;96.85;99108.74;1677097;84;20245;-67
2022/09/10 05:45:22;;;;;;;;;;;;;;;13.94;96.80;99109.80;1677843;84;20493;-65
2022/09/10 05:47:49;;;;;;;;;;;;;;;13.90;96.58;99103.69;1669188;84;20190;-65
2022/09/10 05:50:17;;;;;;;;;;;;;;;13.86;96.81;99103.28;1680126;84;20445;-68
2022/09/10 05:52:44;;;;;;;;;;;;;;;13.86;96.87;99095.27;1671541;84;22062;-66
2022/09/10 05:55:11;;;;;;;;;;;;;;;14.18;95.20;99087.83;1678456;84;20127;-66
2022/09/10 05:57:39;;;;;;;;;;;;;;;14.39;94.38;99087.41;1680012;84;20159;-66
2022/09/10 06:00:08;;;;;;;;;;;;;;;14.17;94.71;99087.53;1674358;84;20130;-67
2022/09/10 06:02:36;;;;;;;;;;;;;;;14.31;94.40;99096.45;1673090;84;20524;-67
2022/09/10 06:05:04;;;;;;;;;;;;;;;14.18;94.62;99090.50;1676472;84;21257;-69
2022/09/10 06:07:32;;;;;;;;;;;;;;;14.11;95.24;99077.63;1681387;84;20509;-65
2022/09/10 06:10:01;;;;;;;;;;;;;;;14.08;96.09;99075.36;1672427;84;20516;-66
2022/09/10 06:12:36;;;;;;;;;;;;;;;14.07;96.23;99084.42;1672000;84;20171;-66
2022/09/10 06:15:06;;;;;;;;;;;;;;;14.02;96.35;99090.06;1671781;84;20139;-66
2022/09/10 06:17:32;;;;;;;;;;;;;;;14.01;96.52;99095.92;1677491;84;21130;-66
2022/09/10 06:20:00;;;;;;;;;;;;;;;13.99;96.45;99111.35;1673529;84;20131;-66
2022/09/10 06:22:29;;;;;;;;;;;;;;;13.89;96.07;99112.75;1677960;84;20179;-67
2022/09/10 06:24:56;;;;;;;;;;;;;;;13.79;96.56;99114.98;1676535;84;20473;-66
2022/09/10 06:27:24;;;;;;;;;;;;;;;13.71;97.06;99107.13;1680437;84;20194;-67
2022/09/10 06:29:50;;;;;;;;;;;;;;;13.79;97.17;99089.58;1673520;84;21268;-66
2022/09/10 06:32:17;;;;;;;;;;;;;;;13.81;97.40;99089.69;1674529;84;20104;-66
2022/09/10 06:34:44;;;;;;;;;;;;;;;13.83;97.80;99091.65;1678122;84;20504;-66
2022/09/10 06:37:10;;;;;;;;;;;;;;;13.85;97.87;99090.09;1659304;84;20431;-66
2022/09/10 06:39:38;;;;;;;;;;;;;;;13.81;98.07;99103.06;1679442;84;20179;-67
2022/09/10 06:42:07;;;;;;;;;;;;;;;13.83;97.84;99108.19;1664227;84;21228;-64
2022/09/10 06:44:39;;;;;;;;;;;;;;;13.82;97.96;99103.35;1650855;84;20156;-69
2022/09/10 06:47:17;;;;;;;;;;;;;;;13.86;97.88;99102.45;1657700;86;20160;-68
2022/09/10 06:49:46;;;;;;;;;;;;;;;13.90;97.70;99096.50;1640130;85;20453;-67
2022/09/10 06:52:14;;;;;;;;;;;;;;;13.89;97.84;99090.02;1643819;85;20144;-66
2022/09/10 06:54:40;;;;;;;;;;;;;;;13.90;97.54;99083.12;1642032;86;21268;-66
2022/09/10 06:57:25;;;;;;;;;;;;;;;13.90;97.79;99071.59;1643857;86;20152;-67
2022/09/10 06:59:51;;;;;;;;;;;;;;;13.97;97.90;99073.80;1637665;86;20154;-66
2022/09/10 07:02:19;;;;;;;;;;;;;;;13.96;98.28;99062.78;1638410;86;20170;-67
2022/09/10 07:04:45;;;;;;;;;;;;;;;14.02;98.46;99060.65;1642518;86;20187;-66
2022/09/10 07:07:12;;;;;;;;;;;;;;;14.04;98.23;99054.06;1642556;86;21986;-65
2022/09/10 07:09:39;;;;;;;;;;;;;;;14.02;98.50;99051.28;1640198;86;20141;-65
2022/09/10 07:12:08;;;;;;;;;;;;;;;14.07;98.71;99051.00;1641755;86;20249;-65
2022/09/10 07:14:37;;;;;;;;;;;;;;;14.15;98.64;99045.97;1641835;86;20130;-65
2022/09/10 07:17:05;;;;;;;;;;;;;;;14.20;98.37;99042.99;1642048;86;20142;-66
2022/09/10 07:19:35;;;;;;;;;;;;;;;14.24;98.34;99047.41;1642314;86;21215;-65
2022/09/10 07:22:03;;;;;;;;;;;;;;;14.32;97.94;99055.27;1642273;86;20102;-66
2022/09/10 07:24:32;;;;;;;;;;;;;;;14.37;97.39;99055.48;1641302;86;20123;-65
2022/09/10 07:27:00;;;;;;;;;;;;;;;14.35;97.44;99051.36;1638456;86;20135;-66
2022/09/10 07:29:29;;;;;;;;;;;;;;;14.40;97.56;99051.06;1639803;85;20549;-64
2022/09/10 07:31:55;;;;;;;;;;;;;;;14.45;97.59;99055.28;1638729;86;21146;-65
2022/09/10 07:34:23;;;;;;;;;;;;;;;14.49;97.25;99053.03;1681986;84;20155;-67
2022/09/10 07:36:50;;;;;;;;;;;;;;;14.48;97.21;99050.03;1681786;83;20138;-68
2022/09/10 07:39:17;;;;;;;;;;;;;;;14.48;96.83;99049.52;1678788;84;20448;-65
2022/09/10 07:41:45;;;;;;;;;;;;;;;14.49;96.73;99056.53;1680252;84;20115;-65
2022/09/10 07:44:13;;;;;;;;;;;;;;;14.48;97.08;99048.69;1677273;84;22077;-67
2022/09/10 07:46:41;;;;;;;;;;;;;;;14.48;96.81;99054.88;1681148;84;20166;-66
2022/09/10 07:49:09;;;;;;;;;;;;;;;14.45;96.86;99049.93;1678227;84;20115;-67
2022/09/10 07:51:38;;;;;;;;;;;;;;;14.42;97.07;99050.33;1680031;84;20262;-66
2022/09/10 07:54:05;;;;;;;;;;;;;;;14.42;96.84;99046.32;1680003;84;20131;-67
2022/09/10 07:56:36;;;;;;;;;;;;;;;14.39;97.30;99050.73;1678774;84;20724;-65
2022/09/10 07:59:04;;;;;;;;;;;;;;;14.40;97.85;99049.72;1681586;84;20164;-66
2022/09/10 08:01:33;;;;;;;;;;;;;;;14.44;97.43;99049.64;1678968;84;20472;-67
2022/09/10 08:04:02;;;;;;;;;;;;;;;14.45;97.14;99045.08;1677676;84;20135;-67
2022/09/10 08:06:28;;;;;;;;;;;;;;;14.45;96.86;99037.89;1679478;84;20167;-65
2022/09/10 08:08:55;;;;;;;;;;;;;;;14.40;97.12;99032.33;1680065;84;21221;-67
2022/09/10 08:11:22;;;;;;;;;;;;;;;14.46;97.04;99031.52;1679569;83;20151;-64
2022/09/10 08:13:52;;;;;;;;;;;;;;;14.47;96.99;99036.36;1677902;84;20115;-65
2022/09/10 08:16:25;;;;;;;;;;;;;;;14.45;97.01;99019.66;1682491;84;20107;-65
2022/09/10 08:18:59;;;;;;;;;;;;;;;14.48;97.06;99028.11;1680131;84;20147;-65
2022/09/10 08:21:23;;;;;;;;;;;;;;;14.40;97.54;99023.47;1659023;86;22051;-67
2022/09/10 08:23:55;;;;;;;;;;;;;;;14.39;98.01;99022.64;1658226;84;20097;-68
2022/09/10 08:26:23;;;;;;;;;;;;;;;14.41;97.75;99029.14;1682827;84;20426;-66
2022/09/10 08:28:51;;;;;;;;;;;;;;;14.44;98.04;99024.72;1676044;84;20380;-66
2022/09/10 08:31:18;;;;;;;;;;;;;;;14.45;97.99;99009.78;1682191;84;20152;-68
2022/09/10 08:33:49;;;;;;;;;;;;;;;14.54;97.65;99002.37;1679271;84;21865;-67
2022/09/10 08:36:17;;;;;;;;;;;;;;;14.52;98.11;98999.89;1681982;84;20127;-66
2022/09/10 08:38:44;;;;;;;;;;;;;;;14.67;98.18;98979.61;1681414;84;20393;-68
2022/09/10 08:41:24;;;;;;;;;;;;;;;14.86;96.34;98980.08;1678796;84;20637;-68
2022/09/10 08:44:03;;;;;;;;;;;;;;;14.75;97.49;98973.53;1663670;86;20145;-67
2022/09/10 08:46:40;;;;;;;;;;;;;;;14.76;97.74;98972.98;1660435;84;21166;-67
2022/09/10 08:49:35;;;;;;;;;;;;;;;14.87;97.49;98970.19;1662669;86;20112;-67
2022/09/10 08:52:19;;;;;;;;;;;;;;;14.91;96.94;98970.09;1661491;84;20101;-67
2022/09/10 08:54:56;;;;;;;;;;;;;;;15.17;95.98;98970.81;1664345;86;20120;-65
2022/09/10 08:57:25;;;;;;;;;;;;;;;15.43;94.44;98964.55;1661369;84;20105;-66
2022/09/10 08:59:51;;;;;;;;;;;;;;;15.26;94.14;98967.39;1661330;84;21278;-65
2022/09/10 09:02:24;;;;;;;;;;;;;;;15.01;96.05;98961.09;1635581;84;20428;-67
2022/09/10 09:05:00;;;;;;;;;;;;;;;14.98;96.50;98950.80;1658976;84;20097;-65
2022/09/10 09:07:30;;;;;;;;;;;;;;;14.96;96.58;98957.72;1660671;84;20588;-67
2022/09/10 09:09:56;;;;;;;;;;;;;;;14.95;96.21;98952.56;1649911;86;20122;-65
2022/09/10 09:12:41;;;;;;;;;;;;;;;14.96;96.18;98958.23;1651504;86;21247;-66
2022/09/10 09:15:36;;;;;;;;;;;;;;;15.00;96.32;98952.74;1651793;86;20448;-65
2022/09/10 09:18:40;;;;;;;;;;;;;;;15.05;96.04;98947.06;1655319;86;20126;-70
2022/09/10 09:21:11;;;;;;;;;;;;;;;15.06;95.82;98945.21;1650597;86;20146;-65
2022/09/10 09:23:54;;;;;;;;;;;;;;;15.09;95.58;98929.55;1652948;86;20126;-66
2022/09/10 09:26:25;;;;;;;;;;;;;;;15.03;96.34;98938.94;1651325;86;39166;-67
2022/09/10 09:29:04;;;;;;;;;;;;;;;15.03;96.00;98932.23;1649947;86;20183;-65
2022/09/10 09:31:33;;;;;;;;;;;;;;;15.09;96.26;98927.38;1671430;84;20115;-65
2022/09/10 09:34:06;;;;;;;;;;;;;;;15.09;96.16;98928.72;1679778;84;20135;-66
2022/09/10 09:36:36;;;;;;;;;;;;;;;15.03;96.63;98929.56;1676795;84;20498;-67
2022/09/10 09:39:03;;;;;;;;;;;;;;;15.05;96.99;98927.48;1679555;84;21995;-65
2022/09/10 09:41:52;;;;;;;;;;;;;;;15.07;96.97;98922.22;1657437;84;20240;-66
2022/09/10 09:44:25;;;;;;;;;;;;;;;15.10;96.83;98920.97;1676564;84;20453;-65
2022/09/10 09:46:51;;;;;;;;;;;;;;;15.11;96.83;98918.61;1678583;84;20430;-67
2022/09/10 09:49:18;;;;;;;;;;;;;;;15.12;97.15;98913.56;1677773;84;20115;-68
2022/09/10 09:51:45;;;;;;;;;;;;;;;15.17;97.15;98910.53;1679245;84;21241;-65
2022/09/10 09:54:16;;;;;;;;;;;;;;;15.22;96.97;98914.76;1681342;84;20131;-67
2022/09/10 09:56:45;;;;;;;;;;;;;;;15.19;96.46;98912.50;1679538;84;20258;-65
2022/09/10 09:59:33;;;;;;;;;;;;;;;15.16;96.51;98906.22;1687082;84;20495;-66
2022/09/10 10:02:07;;;;;;;;;;;;;;;15.17;96.85;98901.15;1680012;84;20286;-67
2022/09/10 10:04:33;;;;;;;;;;;;;;;15.25;96.63;98901.45;1679062;85;21097;-65
2022/09/10 10:07:02;;;;;;;;;;;;;;;15.27;96.51;98895.35;1680242;84;20127;-66
2022/09/10 10:09:40;;;;;;;;;;;;;;;15.22;96.48;98883.95;1680457;84;20098;-67
2022/09/10 10:12:13;;;;;;;;;;;;;;;15.13;96.85;98883.05;1679640;84;20470;-66
2022/09/10 10:14:40;;;;;;;;;;;;;;;15.15;96.95;98879.63;1679364;84;20196;-66
2022/09/10 10:17:25;;;;;;;;;;;;;;;15.16;96.87;98872.73;1675546;84;21260;-68
2022/09/10 10:20:06;;;;;;;;;;;;;;;15.15;96.60;98869.73;1677727;85;20486;-66
2022/09/10 10:22:33;;;;;;;;;;;;;;;15.17;96.42;98860.16;1681064;84;20515;-66
2022/09/10 10:25:01;;;;;;;;;;;;;;;15.15;96.39;98863.55;1679546;83;20181;-66
2022/09/10 10:27:31;;;;;;;;;;;;;;;15.15;96.02;98856.34;1680227;84;20185;-66
2022/09/10 10:30:17;;;;;;;;;;;;;;;15.11;96.21;98848.45;1679027;84;21169;-68
2022/09/10 10:32:46;;;;;;;;;;;;;;;15.10;96.43;98844.63;1676264;84;20139;-67
2022/09/10 10:35:50;;;;;;;;;;;;;;;15.11;96.66;98832.88;1680274;84;20167;-68
2022/09/10 10:38:30;;;;;;;;;;;;;;;15.09;96.76;98829.09;1680145;84;20102;-67
2022/09/10 10:41:04;;;;;;;;;;;;;;;15.09;97.06;98818.38;1679842;84;20143;-68
2022/09/10 10:43:38;;;;;;;;;;;;;;;15.15;97.17;98809.97;1672258;84;22001;-68
2022/09/10 10:46:06;;;;;;;;;;;;;;;15.19;97.19;98811.20;1681726;84;20181;-65
2022/09/10 10:48:53;;;;;;;;;;;;;;;15.27;96.87;98806.41;1675822;84;20454;-67
2022/09/10 10:51:23;;;;;;;;;;;;;;;15.28;96.81;98805.88;1676399;84;20139;-64
2022/09/10 10:54:01;;;;;;;;;;;;;;;15.29;96.87;98800.31;1680850;84;20130;-68
2022/09/10 10:56:40;;;;;;;;;;;;;;;15.34;96.75;98797.80;1671418;84;21094;-67
2022/09/10 10:59:39;;;;;;;;;;;;;;;15.31;96.67;98797.41;1674516;84;20148;-68
2022/09/10 11:02:18;;;;;;;;;;;;;;;15.26;96.71;98793.22;1680489;84;20094;-66
2022/09/10 11:04:49;;;;;;;;;;;;;;;15.22;96.49;98790.68;1675878;84;20158;-67
2022/09/10 11:07:19;;;;;;;;;;;;;;;15.20;96.69;98788.74;1679216;84;20127;-65
2022/09/10 11:09:55;;;;;;;;;;;;;;;15.22;96.55;98787.48;1681396;84;21197;-64
2022/09/10 11:12:28;;;;;;;;;;;;;;;15.20;96.65;98769.98;1682346;84;20147;-66
2022/09/10 11:15:01;;;;;;;;;;;;;;;15.13;96.64;98775.38;1680029;84;20243;-68
2022/09/10 11:17:40;;;;;;;;;;;;;;;15.13;96.63;98766.00;1677452;84;20127;-64
2022/09/10 11:20:25;;;;;;;;;;;;;;;15.16;96.77;98766.08;1679241;85;20135;-67
2022/09/10 11:22:58;;;;;;;;;;;;;;;15.15;96.70;98755.05;1670892;84;21158;-68
2022/09/10 11:25:31;;;;;;;;;;;;;;;15.12;97.08;98750.95;1679420;84;20167;-66
2022/09/10 11:28:18;;;;;;;;;;;;;;;15.09;97.32;98740.69;1682503;84;20161;-69
2022/09/10 11:30:51;;;;;;;;;;;;;;;15.13;97.34;98741.89;1682757;84;20113;-66
2022/09/10 11:33:22;;;;;;;;;;;;;;;15.17;96.96;98739.06;1696340;83;20114;-67
2022/09/10 11:35:52;;;;;;;;;;;;;;;15.12;96.99;98729.52;1696817;83;21146;-67
2022/09/10 11:38:23;;;;;;;;;;;;;;;15.15;96.53;98725.58;1672982;85;20442;-67
2022/09/10 11:41:12;;;;;;;;;;;;;;;15.12;96.11;98718.01;1692463;83;20139;-66
2022/09/10 11:43:42;;;;;;;;;;;;;;;15.04;96.33;98711.06;1670475;84;20134;-67
2022/09/10 11:46:14;;;;;;;;;;;;;;;15.08;96.21;98708.23;1692263;83;20114;-67
2022/09/10 11:48:43;;;;;;;;;;;;;;;15.10;96.25;98703.98;1659574;84;22008;-68
2022/09/10 11:51:23;;;;;;;;;;;;;;;15.11;96.36;98702.96;1671733;84;20137;-66
2022/09/10 11:53:50;;;;;;;;;;;;;;;15.15;96.19;98691.59;1671847;84;20524;-65
2022/09/10 11:56:26;;;;;;;;;;;;;;;15.13;96.23;98686.97;1672608;84;20427;-66
2022/09/10 11:59:08;;;;;;;;;;;;;;;15.20;96.17;98682.92;1671594;84;20089;-65
2022/09/10 12:01:42;;;;;;;;;;;;;;;15.23;96.04;98675.75;1671618;84;21939;-67
2022/09/10 12:04:48;;;;;;;;;;;;;;;15.28;95.83;98670.04;1661874;86;20109;-67
2022/09/10 12:07:18;;;;;;;;;;;;;;;15.27;95.51;98666.25;1701039;83;20166;-65
2022/09/10 12:09:55;;;;;;;;;;;;;;;15.23;95.59;98660.50;1697856;83;20165;-66
2022/09/10 12:12:41;;;;;;;;;;;;;;;15.20;95.82;98663.62;1700497;83;20171;-69
2022/09/10 12:15:23;;;;;;;;;;;;;;;15.23;95.80;98655.66;1694494;83;21078;-67
2022/09/10 12:18:18;;;;;;;;;;;;;;;15.21;95.82;98645.69;1697033;83;20413;-66
2022/09/10 12:20:58;;;;;;;;;;;;;;;15.23;95.69;98646.28;1694544;83;20456;-67
2022/09/10 12:23:30;;;;;;;;;;;;;;;15.21;95.63;98643.83;1697665;83;20476;-65
2022/09/10 12:25:57;;;;;;;;;;;;;;;15.24;95.34;98644.74;1698207;83;20472;-67
2022/09/10 12:28:44;;;;;;;;;;;;;;;15.20;95.36;98641.39;1696785;83;21210;-66
2022/09/10 12:31:16;;;;;;;;;;;;;;;15.16;95.29;98630.80;1656530;84;20437;-65
2022/09/10 12:33:46;;;;;;;;;;;;;;;15.11;95.29;98635.99;1620505;86;20104;-64
2022/09/10 12:36:13;;;;;;;;;;;;;;;15.05;95.46;98639.53;1649488;85;20431;-67
2022/09/10 12:39:06;;;;;;;;;;;;;;;14.99;95.62;98627.05;1652172;86;20110;-65
2022/09/10 12:41:36;;;;;;;;;;;;;;;14.92;96.45;98600.81;1648085;85;21164;-65
2022/09/10 12:44:23;;;;;;;;;;;;;;;14.89;97.42;98603.41;1634708;86;20184;-69
2022/09/10 12:47:14;;;;;;;;;;;;;;;14.95;97.28;98599.04;1634845;86;20147;-67
2022/09/10 12:49:58;;;;;;;;;;;;;;;14.96;96.68;98586.78;1606373;86;20151;-67
2022/09/10 12:52:44;;;;;;;;;;;;;;;14.97;96.67;98580.89;1633090;86;20557;-68
2022/09/10 12:55:14;;;;;;;;;;;;;;;14.98;96.95;98567.30;1635368;86;21127;-68
2022/09/10 12:57:50;;;;;;;;;;;;;;;14.99;96.41;98554.73;1633936;86;20179;-67
2022/09/10 13:00:22;;;;;;;;;;;;;;;14.98;96.64;98549.06;1626119;86;20222;-67
2022/09/10 13:03:08;;;;;;;;;;;;;;;15.02;96.81;98557.77;1633031;86;20089;-66
2022/09/10 13:05:41;;;;;;;;;;;;;;;15.08;96.77;98548.03;1632869;86;20090;-67
2022/09/10 13:08:20;;;;;;;;;;;;;;;15.16;96.66;98543.73;1631070;86;21207;-67
2022/09/10 13:10:50;;;;;;;;;;;;;;;15.15;96.74;98527.34;1630475;86;20159;-70